Terminal Aerodrome Forecast
Issued by NWS Blacksburg, VA

Home | Current Version | Previous Version | Text Only | Print | Product List | Glossary On
Versions: 1 2 3 4 5 6 7 8 9 10 11 12 13 14 15 16
000
FTUS41 KRNK 150540
TAFROA
TAF
KROA 150540Z 1506/1606 36004KT P6SM BKN090 OVC250
     FM150800 04004KT P6SM OVC035
      TEMPO 1510/1514 6SM -FZDZ BR OVC028
     FM151500 06005KT P6SM -RA BKN030
     FM151700 25008G16KT P6SM BKN100
     FM152300 29009G17KT P6SM SCT200=

USA.gov is the U.S. government's official web portal to all federal, state and local government web resources and services.